Terminal Aerodrome Forecast
Issued by NWS

Home | Current Version | Previous Version | Graphics & Text | Print | Product List | Glossary On
Versions: 1 2 3 4 5 6 7 8 9 10 11 12 13 14 15 16 17 18 19 20 21 22 23 24 25 26
589
FTUS45 KGGW 222332
TAFGDV
TAF
KGDV 222332Z 2300/2324 01011KT P6SM BKN110
     FM230100 36008KT P6SM SCT070
     FM232200 10004KT P6SM FEW250=

USA.gov is the U.S. government's official web portal to all federal, state and local government web resources and services.